Time;durP1;ratioP1;P1;durP2;ratioP2;P2;SDS_P1;SDS_P2;PMS_P1;PMS_P2;Temp;Humidity;BMP_temperature;BMP_pressure;BME280_temperature;BME280_humidity;BME280_pressure;Samples;Min_cycle;Max_cycle;Signal;HPM_P1;HPM_P2
2021/09/11 15:57:53;;;;;;;17.97;10.50;;;;;;;19.97;100.00;101580.66;5084763;27;1284886;-60
2021/09/11 16:00:18;;;;;;;18.15;9.88;;;;;;;19.92;100.00;101583.25;5073073;28;20489;-60
2021/09/11 16:02:44;;;;;;;16.17;8.82;;;;;;;19.87;100.00;101592.09;5089523;28;20423;-61
2021/09/11 16:05:14;;;;;;;21.00;9.73;;;;;;;19.81;100.00;101593.03;5070453;28;20040;-61
2021/09/11 16:07:42;;;;;;;15.47;9.10;;;;;;;19.86;100.00;101595.03;5098577;28;20040;-60
2021/09/11 16:10:08;;;;;;;15.67;9.10;;;;;;;19.94;100.00;101586.53;5089405;28;20039;-61
2021/09/11 16:12:33;;;;;;;;;;;;;;;20.19;100.00;101594.38;5089035;28;20058;-60
2021/09/11 16:14:59;;;;;;;14.60;8.53;;;;;;;19.85;100.00;101596.94;5071429;28;19995;-61
2021/09/11 16:17:24;;;;;;;11.73;7.13;;;;;;;19.88;100.00;101593.75;5090201;28;20467;-61
2021/09/11 16:19:50;;;;;;;11.80;7.15;;;;;;;19.83;100.00;101596.31;5071882;28;20058;-59
2021/09/11 16:22:15;;;;;;;10.70;7.10;;;;;;;19.91;100.00;101593.28;5089440;28;20048;-60
2021/09/11 16:24:41;;;;;;;13.93;6.60;;;;;;;19.86;100.00;101593.16;5088054;28;20094;-59
2021/09/11 16:27:06;;;;;;;10.95;6.28;;;;;;;19.81;100.00;101592.22;5087239;28;20127;-59
2021/09/11 16:29:32;;;;;;;12.90;7.20;;;;;;;20.47;100.00;101590.00;5052662;28;20048;-60
2021/09/11 16:31:57;;;;;;;11.27;7.32;;;;;;;20.39;100.00;101598.53;5087764;28;20032;-60
2021/09/11 16:34:23;;;;;;;13.68;7.50;;;;;;;20.35;100.00;101594.69;5083799;28;20497;-59
2021/09/11 16:36:48;;;;;;;15.25;8.45;;;;;;;20.31;100.00;101596.22;5078976;28;20067;-61
2021/09/11 16:39:14;;;;;;;13.80;7.95;;;;;;;20.33;100.00;101586.75;5078195;28;20451;-59
2021/09/11 16:41:41;;;;;;;12.73;8.07;;;;;;;20.37;100.00;101594.41;5081693;28;20458;-60
2021/09/11 16:44:07;;;;;;;16.07;8.10;;;;;;;20.37;100.00;101595.25;5099826;28;20032;-59
2021/09/11 16:46:33;;;;;;;19.10;9.15;;;;;;;20.54;100.00;101597.19;5095683;28;20434;-61
2021/09/11 16:48:59;;;;;;;18.83;8.10;;;;;;;20.40;100.00;101597.47;5071651;28;20051;-62
2021/09/11 16:51:24;;;;;;;14.80;8.10;;;;;;;20.42;100.00;101603.50;5071166;28;20048;-61
2021/09/11 16:53:51;;;;;;;15.88;8.75;;;;;;;20.35;100.00;101600.09;5089199;28;20055;-61
2021/09/11 16:56:17;;;;;;;17.00;9.47;;;;;;;20.33;100.00;101604.97;5089267;28;20580;-60
2021/09/11 16:58:43;;;;;;;15.90;9.18;;;;;;;20.30;100.00;101611.69;5071379;28;20040;-61
2021/09/11 17:01:08;;;;;;;13.80;8.73;;;;;;;20.33;100.00;101607.69;5089784;28;20125;-61
2021/09/11 17:03:35;;;;;;;16.98;10.07;;;;;;;20.38;100.00;101609.66;5071527;28;20048;-61
2021/09/11 17:06:01;;;;;;;13.60;8.80;;;;;;;20.36;100.00;101604.47;5088579;28;20051;-61
2021/09/11 17:08:27;;;;;;;14.83;9.93;;;;;;;20.46;100.00;101610.06;5079231;28;20605;-62
2021/09/11 17:10:54;;;;;;;18.25;10.15;;;;;;;20.54;100.00;101616.22;5075517;28;20104;-60
2021/09/11 17:13:20;;;;;;;16.70;10.13;;;;;;;20.45;100.00;101621.22;5057295;28;20048;-60
2021/09/11 17:15:45;;;;;;;19.33;10.88;;;;;;;24.02;100.00;101610.84;5080124;28;20032;-61
2021/09/11 17:18:11;;;;;;;17.80;10.65;;;;;;;20.73;100.00;101617.63;5092589;28;20496;-61
2021/09/11 17:20:36;;;;;;;18.63;11.18;;;;;;;23.96;100.00;101620.88;5075886;28;20054;-60
2021/09/11 17:23:03;;;;;;;17.30;10.57;;;;;;;23.51;100.00;101619.56;5076033;28;20113;-59
2021/09/11 17:25:30;;;;;;;17.03;10.10;;;;;;;20.79;100.00;101623.97;5041358;28;20029;-60
2021/09/11 17:27:56;;;;;;;22.17;11.48;;;;;;;20.32;100.00;101619.59;5057634;28;20055;-58
2021/09/11 17:30:22;;;;;;;19.15;10.52;;;;;;;20.29;100.00;101620.91;5075982;28;20051;-61
2021/09/11 17:32:47;;;;;;;;;;;;;;;20.20;100.00;101616.94;5076229;28;20052;-61
2021/09/11 17:35:13;;;;;;;25.10;10.27;;;;;;;20.15;100.00;101609.50;5075703;28;19919;-61
2021/09/11 17:37:44;;;;;;;20.52;11.50;;;;;;;20.10;100.00;101609.41;5075781;28;20149;-59
2021/09/11 17:40:11;;;;;;;18.27;10.93;;;;;;;20.06;100.00;101610.94;5075717;28;20037;-60
2021/09/11 17:42:37;;;;;;;17.57;11.63;;;;;;;20.00;100.00;101614.63;5075862;28;20029;-60
2021/09/11 17:45:04;;;;;;;22.67;11.73;;;;;;;20.00;100.00;101614.63;5075663;28;20115;-60
2021/09/11 17:47:29;;;;;;;24.30;13.63;;;;;;;19.99;100.00;101621.09;5074734;28;20041;-60
2021/09/11 17:49:56;;;;;;;21.67;11.45;;;;;;;19.92;100.00;101616.66;5073958;28;20032;-59
2021/09/11 17:52:21;;;;;;;23.75;12.05;;;;;;;19.88;100.00;101623.59;5056502;28;20399;-60
2021/09/11 17:54:47;;;;;;;23.15;12.27;;;;;;;19.84;100.00;101624.31;5089494;28;20032;-60
2021/09/11 17:57:13;;;;;;;21.67;13.38;;;;;;;19.84;100.00;101621.59;5094236;28;20163;-61
2021/09/11 17:59:39;;;;;;;;;;;;;;;19.82;100.00;101624.53;5095094;28;20040;-62
2021/09/11 18:02:05;;;;;;;26.50;12.60;;;;;;;19.70;100.00;101621.84;5094699;28;19945;-60
2021/09/11 18:04:31;;;;;;;91.40;20.58;;;;;;;19.52;100.00;101643.69;5094102;28;20029;-61
2021/09/11 18:06:58;;;;;;;34.30;17.33;;;;;;;19.20;100.00;101677.38;5094590;28;20072;-59
2021/09/11 18:09:24;;;;;;;35.83;20.23;;;;;;;19.18;100.00;101655.09;5094280;28;20149;-60
2021/09/11 18:11:49;;;;;;;38.65;19.77;;;;;;;19.15;100.00;101648.25;5081311;28;20028;-60
2021/09/11 18:14:15;;;;;;;45.97;21.90;;;;;;;19.10;100.00;101647.28;5074065;28;20036;-60
2021/09/11 18:16:41;;;;;;;53.58;22.92;;;;;;;19.08;100.00;101649.41;5074207;28;20384;-60
2021/09/11 18:19:07;;;;;;;47.75;22.88;;;;;;;18.95;100.00;101647.69;5072551;28;20047;-59
2021/09/11 18:21:33;;;;;;;62.10;25.10;;;;;;;18.93;100.00;101650.66;5074300;28;20024;-59
2021/09/11 18:23:58;;;;;;;65.55;27.35;;;;;;;18.93;100.00;101653.38;5074103;28;20036;-60
2021/09/11 18:26:24;;;;;;;60.20;25.92;;;;;;;18.90;100.00;101653.81;5073142;28;20178;-59
2021/09/11 18:28:56;;;;;;;64.97;26.50;;;;;;;18.89;100.00;101663.00;5080428;28;20071;-60
2021/09/11 18:31:21;;;;;;;59.40;26.63;;;;;;;18.93;100.00;101658.78;5094034;28;20042;-60
2021/09/11 18:33:46;;;;;;;46.08;23.85;;;;;;;18.80;100.00;101658.97;5093389;28;20024;-61
2021/09/11 18:36:13;;;;;;;43.33;21.58;;;;;;;18.71;100.00;101659.31;5093450;28;20039;-60
2021/09/11 18:38:39;;;;;;;60.37;26.03;;;;;;;18.70;100.00;101671.22;5093722;28;20097;-59
2021/09/11 18:41:05;;;;;;;55.67;23.73;;;;;;;18.68;100.00;101672.47;5093833;28;20027;-59
2021/09/11 18:43:30;;;;;;;51.25;22.02;;;;;;;18.60;100.00;101670.91;5093838;28;20032;-60
2021/09/11 18:45:56;;;;;;;49.13;22.55;;;;;;;18.55;100.00;101678.91;5094194;28;20399;-59
2021/09/11 18:48:22;;;;;;;55.83;22.33;;;;;;;18.58;100.00;101683.88;5048883;28;20043;-57
2021/09/11 18:50:48;;;;;;;49.28;21.90;;;;;;;18.70;100.00;101690.16;5073137;28;20082;-60
2021/09/11 18:53:14;;;;;;;;;;;;;;;18.77;100.00;101692.78;5073361;28;20032;-61
2021/09/11 18:55:40;;;;;;;49.57;22.37;;;;;;;18.75;100.00;101689.47;5072916;28;20385;-60
2021/09/11 18:58:06;;;;;;;53.47;23.02;;;;;;;18.70;100.00;101703.72;5073275;28;20044;-61
2021/09/11 19:00:32;;;;;;;48.45;21.13;;;;;;;18.64;100.00;101710.03;5073279;28;20040;-60
2021/09/11 19:02:58;;;;;;;44.10;22.65;;;;;;;18.68;100.00;101702.28;5073137;28;20540;-60
2021/09/11 19:05:27;;;;;;;53.53;23.83;;;;;;;18.67;100.00;101704.16;5072025;28;20052;-60
2021/09/11 19:07:56;;;;;;;44.40;20.97;;;;;;;18.60;100.00;101704.25;5071451;28;20504;-60
2021/09/11 19:10:22;;;;;;;36.47;19.63;;;;;;;18.65;100.00;101710.88;5072745;28;20045;-61
2021/09/11 19:12:51;;;;;;;43.80;20.40;;;;;;;18.69;100.00;101712.06;5073073;28;20391;-61
2021/09/11 19:15:17;;;;;;;43.30;19.00;;;;;;;18.66;100.00;101715.22;5072934;28;20036;-60
2021/09/11 19:17:45;;;;;;;39.63;18.97;;;;;;;18.66;100.00;101709.81;5061296;28;20111;-61
2021/09/11 19:20:13;;;;;;;38.50;18.50;;;;;;;18.53;100.00;101702.69;5074248;28;20039;-62
2021/09/11 19:22:38;;;;;;;37.97;18.83;;;;;;;18.45;100.00;101715.50;5074568;28;20032;-61
2021/09/11 19:25:06;;;;;;;36.22;19.95;;;;;;;18.49;100.00;101708.56;5093122;28;20055;-60
2021/09/11 19:27:32;;;;;;;38.67;19.40;;;;;;;18.54;100.00;101709.75;5086487;28;20028;-61
2021/09/11 19:29:58;;;;;;;47.83;20.55;;;;;;;18.57;100.00;101714.72;5088315;28;20098;-60
2021/09/11 19:32:23;;;;;;;44.47;20.75;;;;;;;18.58;100.00;101706.38;5092864;28;20515;-61
2021/09/11 19:34:49;;;;;;;44.63;20.40;;;;;;;18.57;100.00;101720.97;5092408;28;20544;-62
2021/09/11 19:37:15;;;;;;;46.58;20.52;;;;;;;18.55;100.00;101722.25;5074697;28;20040;-59
2021/09/11 19:39:41;;;;;;;41.37;20.57;;;;;;;18.58;100.00;101709.09;5074946;28;20036;-60
2021/09/11 19:42:07;;;;;;;;;;;;;;;18.57;100.00;101720.13;5075548;28;20067;-61
2021/09/11 19:44:34;;;;;;;34.23;19.07;;;;;;;18.61;100.00;101721.31;5092901;28;20322;-61
2021/09/11 19:46:59;;;;;;;34.73;18.00;;;;;;;18.57;100.00;101728.25;5092872;28;20047;-60
2021/09/11 19:49:25;;;;;;;38.13;17.98;;;;;;;18.55;100.00;101728.47;5075950;28;20399;-61
2021/09/11 19:51:51;;;;;;;36.60;18.40;;;;;;;18.51;100.00;101730.00;5075045;28;20452;-61
2021/09/11 19:54:17;;;;;;;43.67;19.42;;;;;;;18.54;100.00;101731.44;5092688;28;20101;-60
2021/09/11 19:56:42;;;;;;;40.70;18.83;;;;;;;18.41;100.00;101732.41;5084055;28;20512;-60
2021/09/11 19:59:08;;;;;;;39.70;17.85;;;;;;;18.46;100.00;101733.41;5053822;28;20052;-61
2021/09/11 20:01:34;;;;;;;36.72;17.08;;;;;;;18.45;100.00;101734.44;5088104;28;20078;-60
2021/09/11 20:04:00;;;;;;;35.20;16.13;;;;;;;18.49;100.00;101742.94;5092184;28;20067;-61
2021/09/11 20:06:25;;;;;;;37.95;18.50;;;;;;;18.55;100.00;101739.31;5077402;28;20408;-60
2021/09/11 20:08:51;;;;;;;43.90;17.60;;;;;;;18.41;100.00;101741.34;5054556;28;20051;-61
2021/09/11 20:11:16;;;;;;;35.63;15.65;;;;;;;18.52;100.00;101741.66;5072345;28;20041;-61
2021/09/11 20:13:42;;;;;;;44.45;16.58;;;;;;;18.52;100.00;101738.94;5072524;28;20033;-61
2021/09/11 20:16:07;;;;;;;44.03;17.17;;;;;;;18.53;100.00;101733.28;5054232;28;20037;-61
2021/09/11 20:18:33;;;;;;;44.40;17.77;;;;;;;18.46;100.00;101727.97;5071376;28;20071;-61
2021/09/11 20:20:58;;;;;;;37.03;17.10;;;;;;;18.47;100.00;101732.34;5072417;28;20372;-62
2021/09/11 20:23:24;;;;;;;32.85;16.27;;;;;;;18.52;100.00;101723.50;5077876;28;20177;-61
2021/09/11 20:25:51;;;;;;;35.95;16.35;;;;;;;18.54;100.00;101729.53;5092250;28;20503;-62
2021/09/11 20:28:17;;;;;;;35.83;16.77;;;;;;;18.53;100.00;101729.78;5092296;28;20105;-60
2021/09/11 20:30:43;;;;;;;41.20;16.38;;;;;;;18.45;100.00;101734.44;5092664;28;20060;-61
2021/09/11 20:33:10;;;;;;;42.03;18.40;;;;;;;18.37;100.00;101723.91;5073900;28;20131;-62
2021/09/11 20:35:36;;;;;;;36.87;17.43;;;;;;;18.34;100.00;101727.06;5091681;28;20371;-61
2021/09/11 20:38:01;;;;;;;;;;;;;;;18.36;100.00;101729.56;5074975;28;20430;-60
2021/09/11 20:40:28;;;;;;;48.87;18.63;;;;;;;18.27;100.00;101731.75;5092228;28;19908;-61
2021/09/11 20:42:53;;;;;;;29.42;12.90;;;;;;;18.29;100.00;101740.47;5093436;28;20403;-60
2021/09/11 20:45:19;;;;;;;31.15;13.63;;;;;;;18.31;100.00;101741.88;5077869;28;20028;-60
2021/09/11 20:47:44;;;;;;;33.90;14.50;;;;;;;18.26;100.00;101746.34;5095573;28;20116;-61
2021/09/11 20:50:11;;;;;;;36.30;14.40;;;;;;;18.32;100.00;101743.53;5096242;28;20039;-62
2021/09/11 20:52:36;;;;;;;30.67;11.23;;;;;;;18.40;100.00;101741.59;5096162;28;20540;-61
2021/09/11 20:55:02;;;;;;;27.38;8.52;;;;;;;18.31;100.00;101738.34;5095896;28;20028;-61
2021/09/11 20:57:28;;;;;;;23.88;9.05;;;;;;;18.34;100.00;101733.31;5040035;28;20052;-61
2021/09/11 20:59:53;;;;;;;18.00;6.78;;;;;;;18.29;100.00;101732.34;5054517;28;20041;-61
2021/09/11 21:02:18;;;;;;;19.90;7.18;;;;;;;18.30;100.00;101725.88;5042264;28;20048;-62
2021/09/11 21:04:45;;;;;;;21.08;7.60;;;;;;;18.32;100.00;101734.59;5066214;28;20044;-62
2021/09/11 21:07:11;;;;;;;;;;;;;;;18.31;100.00;101733.75;5068950;28;20040;-62
2021/09/11 21:09:36;;;;;;;31.47;8.57;;;;;;;18.36;100.00;101737.69;5075328;28;19927;-61
2021/09/11 21:12:03;;;;;;;34.00;10.60;;;;;;;18.28;100.00;101736.09;5075804;28;20040;-61
2021/09/11 21:14:29;;;;;;;40.07;13.13;;;;;;;18.24;100.00;101737.59;5075957;28;20056;-62
2021/09/11 21:16:55;;;;;;;30.65;10.95;;;;;;;18.26;100.00;101738.22;5077310;28;20099;-62
2021/09/11 21:19:20;;;;;;;24.95;9.07;;;;;;;18.31;100.00;101738.34;5075149;28;20052;-61
2021/09/11 21:21:46;;;;;;;22.38;8.32;;;;;;;18.23;100.00;101738.66;5074038;28;20087;-62
2021/09/11 21:24:11;;;;;;;32.20;11.05;;;;;;;18.31;100.00;101732.94;5073869;28;20119;-61
2021/09/11 21:26:38;;;;;;;25.95;10.13;;;;;;;18.25;100.00;101731.16;5075176;28;20086;-62
2021/09/11 21:29:04;;;;;;;34.40;11.87;;;;;;;18.32;100.00;101742.72;5075311;28;20060;-61
2021/09/11 21:31:30;;;;;;;27.58;9.82;;;;;;;18.25;100.00;101733.84;5073711;28;20067;-62
2021/09/11 21:33:55;;;;;;;32.22;10.50;;;;;;;18.19;100.00;101727.44;5074998;28;20411;-60
2021/09/11 21:36:21;;;;;;;29.02;8.93;;;;;;;18.27;100.00;101727.13;5074873;28;20460;-60
2021/09/11 21:38:47;;;;;;;19.48;7.63;;;;;;;18.28;100.00;101730.69;5075115;28;20184;-62
2021/09/11 21:41:13;;;;;;;32.30;8.73;;;;;;;18.26;100.00;101725.47;5073877;28;20468;-61
2021/09/11 21:43:40;;;;;;;;;;;;;;;18.34;100.00;101737.91;5075212;28;20454;-61
2021/09/11 21:46:05;;;;;;;27.23;9.57;;;;;;;18.31;100.00;101732.94;5074874;28;19946;-62
2021/09/11 21:48:31;;;;;;;20.63;5.57;;;;;;;18.26;100.00;101733.59;5073931;28;20024;-61
2021/09/11 21:50:57;;;;;;;;;;;;;;;18.28;100.00;101738.81;5075128;28;20131;-62
2021/09/11 21:53:22;;;;;;;17.50;5.67;;;;;;;18.24;100.00;101730.31;5074346;28;19985;-60
2021/09/11 21:55:49;;;;;;;12.15;4.68;;;;;;;18.29;100.00;101743.16;5073422;28;20560;-61
2021/09/11 21:58:15;;;;;;;21.90;5.70;;;;;;;18.26;100.00;101735.50;5091846;28;20063;-62
2021/09/11 22:00:41;;;;;;;19.92;5.72;;;;;;;18.29;100.00;101740.47;5076845;28;20474;-61
2021/09/11 22:03:07;;;;;;;13.48;4.35;;;;;;;18.22;100.00;101734.28;5093820;28;20411;-61
2021/09/11 22:05:33;;;;;;;15.60;5.10;;;;;;;18.23;100.00;101736.78;5094448;28;20032;-62
2021/09/11 22:07:58;;;;;;;26.50;7.00;;;;;;;18.24;100.00;101727.59;5094337;28;20027;-60
2021/09/11 22:10:24;;;;;;;19.05;4.78;;;;;;;18.28;100.00;101736.09;5094010;28;20162;-59
2021/09/11 22:12:50;;;;;;;28.13;6.50;;;;;;;18.29;100.00;101730.44;5094377;28;20040;-61
2021/09/11 22:15:17;;;;;;;20.08;5.82;;;;;;;18.27;100.00;101731.75;5094440;28;20043;-64
2021/09/11 22:17:44;;;;;;;19.33;5.10;;;;;;;18.22;100.00;101726.16;5093366;28;20162;-62
2021/09/11 22:20:10;;;;;;;21.37;5.77;;;;;;;18.22;100.00;101728.84;5094183;28;20130;-61
2021/09/11 22:22:36;;;;;;;15.27;5.30;;;;;;;18.10;100.00;101726.91;5093987;28;20102;-62
2021/09/11 22:25:03;;;;;;;17.27;5.35;;;;;;;18.07;100.00;101721.94;5094633;28;20043;-62
2021/09/11 22:27:29;;;;;;;24.70;8.00;;;;;;;18.10;100.00;101728.78;5075902;28;20077;-62
2021/09/11 22:29:55;;;;;;;16.92;5.53;;;;;;;18.10;100.00;101737.75;5094222;28;20131;-62
2021/09/11 22:32:21;;;;;;;17.33;5.80;;;;;;;18.06;100.00;101725.72;5075421;28;20548;-62
2021/09/11 22:34:46;;;;;;;23.70;5.70;;;;;;;18.08;100.00;101739.84;5094049;28;20044;-60
2021/09/11 22:37:12;;;;;;;16.65;5.78;;;;;;;18.04;100.00;101736.75;5094108;28;20062;-61
2021/09/11 22:39:38;;;;;;;15.45;4.80;;;;;;;18.03;100.00;101734.28;5093855;28;20036;-62
2021/09/11 22:42:04;;;;;;;15.90;5.00;;;;;;;18.01;100.00;101731.78;5093986;28;20051;-62
2021/09/11 22:44:31;;;;;;;23.88;5.25;;;;;;;18.04;100.00;101738.66;5093806;28;20051;-63
2021/09/11 22:46:56;;;;;;;21.75;5.32;;;;;;;18.04;100.00;101733.22;5058526;28;20040;-61
2021/09/11 22:49:22;;;;;;;21.92;5.70;;;;;;;18.10;100.00;101735.03;5093854;28;20098;-60
2021/09/11 22:51:47;;;;;;;22.00;5.13;;;;;;;18.06;100.00;101725.72;5093515;28;20058;-61
2021/09/11 22:54:13;;;;;;;17.60;6.45;;;;;;;18.12;100.00;101724.81;5089824;28;20476;-60
2021/09/11 22:56:38;;;;;;;20.30;5.97;;;;;;;18.18;100.00;101723.09;5091936;28;20060;-62
2021/09/11 22:59:04;;;;;;;19.63;6.05;;;;;;;18.15;100.00;101723.53;5093826;28;20554;-61
2021/09/11 23:01:29;;;;;;;19.15;6.20;;;;;;;18.14;100.00;101733.53;5057862;28;20040;-60
2021/09/11 23:03:55;;;;;;;26.40;7.15;;;;;;;18.13;100.00;101728.34;5075471;28;20068;-61
2021/09/11 23:06:20;;;;;;;23.88;7.70;;;;;;;18.12;100.00;101726.69;5093380;28;20074;-61
2021/09/11 23:08:45;;;;;;;23.60;7.93;;;;;;;18.09;100.00;101732.53;5093108;28;20040;-61
2021/09/11 23:11:12;;;;;;;21.70;8.43;;;;;;;18.10;100.00;101740.44;5093679;28;20028;-61
2021/09/11 23:13:38;;;;;;;22.07;8.97;;;;;;;18.09;100.00;101737.94;5093230;28;20047;-61
2021/09/11 23:16:03;;;;;;;26.95;8.50;;;;;;;17.99;100.00;101725.75;5081178;28;20024;-61
2021/09/11 23:18:29;;;;;;;24.35;7.95;;;;;;;18.04;100.00;101730.53;5073332;28;20536;-61
2021/09/11 23:20:55;;;;;;;30.73;9.05;;;;;;;17.98;100.00;101734.06;5091997;28;20047;-61
2021/09/11 23:23:20;;;;;;;26.95;8.57;;;;;;;18.09;100.00;101727.97;5093156;28;20475;-62
2021/09/11 23:25:45;;;;;;;26.90;8.35;;;;;;;18.04;100.00;101725.91;5092996;28;20040;-61
2021/09/11 23:28:11;;;;;;;26.63;9.23;;;;;;;20.96;100.00;101732.75;5093135;28;20074;-61
2021/09/11 23:30:37;;;;;;;31.40;8.63;;;;;;;21.47;100.00;101732.03;5092302;28;20092;-61
2021/09/11 23:33:03;;;;;;;24.23;8.43;;;;;;;18.48;100.00;101734.00;5075057;28;20044;-61
2021/09/11 23:35:28;;;;;;;30.08;8.95;;;;;;;18.01;100.00;101733.66;5092963;28;20044;-60
2021/09/11 23:37:54;;;;;;;29.80;8.77;;;;;;;17.92;100.00;101736.63;5092584;28;20051;-61
2021/09/11 23:40:19;;;;;;;19.85;8.95;;;;;;;17.95;100.00;101729.09;5092904;28;20036;-61
2021/09/11 23:42:44;;;;;;;25.25;9.27;;;;;;;17.90;100.00;101736.03;5074758;28;20181;-60
2021/09/11 23:45:10;;;;;;;28.27;9.23;;;;;;;17.88;100.00;101731.91;5092923;28;20474;-61
2021/09/11 23:47:36;;;;;;;25.70;9.02;;;;;;;17.91;100.00;101726.84;5057410;28;20067;-62
2021/09/11 23:50:03;;;;;;;25.20;9.38;;;;;;;17.93;100.00;101726.66;5093048;28;20048;-61
2021/09/11 23:52:29;;;;;;;28.93;8.60;;;;;;;17.95;100.00;101726.41;5093105;28;20035;-62
2021/09/11 23:54:54;;;;;;;25.42;9.40;;;;;;;17.91;100.00;101721.44;5092259;28;20457;-62
2021/09/11 23:57:22;;;;;;;26.02;9.15;;;;;;;17.92;100.00;101712.28;5092667;28;20097;-62
2021/09/11 23:59:48;;;;;;;21.60;9.33;;;;;;;17.90;100.00;101713.56;5092604;28;20036;-62
